Time;durP1;ratioP1;P1;durP2;ratioP2;P2;SDS_P1;SDS_P2;PMS_P1;PMS_P2;Temp;Humidity;BMP_temperature;BMP_pressure;BME280_temperature;BME280_humidity;BME280_pressure;Samples;Min_cycle;Max_cycle;Signal;HPM_P1;HPM_P2
2023/12/02 00:01:15;;;;;;;19.80;10.68;;;2.90;49.80;;;;;;5019400;28;20600;-35
2023/12/02 00:03:44;;;;;;;20.98;10.60;;;2.80;49.90;;;;;;5023751;28;20049;-35
2023/12/02 00:06:12;;;;;;;21.88;11.20;;;2.80;49.60;;;;;;5016321;28;20544;-35
2023/12/02 00:08:39;;;;;;;20.75;11.15;;;2.80;50.00;;;;;;5021541;28;20518;-36
2023/12/02 00:11:06;;;;;;;22.05;10.80;;;2.70;49.80;;;;;;5025278;28;20060;-34
2023/12/02 00:13:34;;;;;;;20.15;10.55;;;2.60;49.50;;;;;;5017971;28;20057;-35
2023/12/02 00:16:01;;;;;;;21.55;10.52;;;2.60;49.40;;;;;;5019338;28;20053;-34
2023/12/02 00:18:28;;;;;;;19.35;10.05;;;2.50;49.60;;;;;;5016726;28;20058;-34
2023/12/02 00:20:57;;;;;;;18.65;10.65;;;2.50;49.90;;;;;;5017357;28;20060;-36
2023/12/02 00:23:24;;;;;;;20.73;10.70;;;2.50;50.10;;;;;;5023111;28;20053;-37
2023/12/02 00:25:51;;;;;;;21.80;10.90;;;2.40;49.90;;;;;;5019668;28;20057;-35
2023/12/02 00:28:20;;;;;;;21.17;10.98;;;2.30;49.50;;;;;;5016652;28;20045;-34
2023/12/02 00:30:47;;;;;;;21.90;10.63;;;2.20;49.70;;;;;;5021094;28;20060;-34
2023/12/02 00:33:14;;;;;;;18.23;9.90;;;2.20;49.90;;;;;;5019497;28;20537;-43
2023/12/02 00:35:42;;;;;;;21.90;10.20;;;2.10;50.00;;;;;;5021052;28;20061;-41
2023/12/02 00:38:10;;;;;;;18.05;9.23;;;2.10;50.20;;;;;;5020766;28;20049;-42
2023/12/02 00:40:37;;;;;;;20.70;10.52;;;2.10;50.40;;;;;;5021172;28;20060;-43
2023/12/02 00:43:04;;;;;;;19.38;10.43;;;2.10;50.50;;;;;;5019321;28;20585;-41
2023/12/02 00:45:32;;;;;;;22.42;9.70;;;2.10;50.40;;;;;;5017610;28;20053;-41
2023/12/02 00:47:59;;;;;;;19.40;9.43;;;2.10;50.50;;;;;;5017818;28;20058;-43
2023/12/02 00:50:26;;;;;;;19.05;9.82;;;2.10;50.60;;;;;;5023037;28;20049;-45
2023/12/02 00:52:54;;;;;;;18.55;9.43;;;2.20;50.90;;;;;;5021972;28;20057;-43
2023/12/02 00:55:22;;;;;;;17.60;8.95;;;2.20;51.00;;;;;;5021650;28;20050;-41
2023/12/02 00:57:49;;;;;;;15.15;8.55;;;2.30;51.00;;;;;;5022659;28;20053;-43
2023/12/02 01:00:17;;;;;;;17.92;8.82;;;2.20;51.10;;;;;;5018882;28;20422;-44
2023/12/02 01:02:45;;;;;;;19.60;10.00;;;2.30;51.10;;;;;;5019630;28;20054;-44
2023/12/02 01:05:12;;;;;;;19.83;10.27;;;2.30;51.10;;;;;;5018396;28;20064;-41
2023/12/02 01:07:39;;;;;;;20.13;10.20;;;2.40;51.10;;;;;;5014360;28;20068;-44
2023/12/02 01:10:11;;;;;;;17.55;8.73;;;2.40;51.00;;;;;;5018152;28;20054;-41
2023/12/02 01:12:40;;;;;;;18.95;8.77;;;2.40;51.00;;;;;;5017251;28;20064;-43
2023/12/02 01:15:08;;;;;;;19.40;9.75;;;2.40;51.00;;;;;;5016845;28;20152;-45
2023/12/02 01:17:35;;;;;;;20.00;10.07;;;2.50;51.10;;;;;;5019688;28;20057;-42
2023/12/02 01:20:03;;;;;;;17.95;9.32;;;2.50;51.00;;;;;;5026252;28;20401;-45
2023/12/02 01:22:30;;;;;;;17.10;9.35;;;2.50;51.00;;;;;;5020984;28;20061;-44
2023/12/02 01:24:57;;;;;;;19.05;9.32;;;2.60;51.10;;;;;;5022216;28;20054;-43
2023/12/02 01:27:25;;;;;;;18.50;9.77;;;2.60;51.10;;;;;;5022642;28;20049;-40
2023/12/02 01:29:53;;;;;;;16.58;9.60;;;2.60;51.10;;;;;;5022682;28;20478;-44
2023/12/02 01:32:20;;;;;;;17.90;9.45;;;2.60;51.60;;;;;;5023498;28;20057;-42
2023/12/02 01:34:48;;;;;;;18.13;9.77;;;2.70;51.10;;;;;;5021395;28;20075;-43
2023/12/02 01:37:15;;;;;;;18.02;10.13;;;2.70;51.00;;;;;;5021310;28;20049;-45
2023/12/02 01:39:42;;;;;;;18.25;10.38;;;2.70;51.00;;;;;;5016062;28;20054;-42
2023/12/02 01:42:09;;;;;;;16.50;9.75;;;2.80;51.10;;;;;;5027241;28;20115;-34
2023/12/02 01:44:37;;;;;;;18.85;9.48;;;2.80;51.10;;;;;;5025662;28;20072;-36
2023/12/02 01:47:06;;;;;;;21.00;10.75;;;2.80;51.00;;;;;;5023108;28;20056;-34
2023/12/02 01:49:33;;;;;;;15.25;9.30;;;2.80;51.10;;;;;;5018992;28;20402;-35
2023/12/02 01:52:01;;;;;;;16.27;9.13;;;2.80;51.10;;;;;;5018668;28;20067;-34
2023/12/02 01:54:28;;;;;;;19.35;10.35;;;2.90;51.10;;;;;;5018411;28;20054;-34
2023/12/02 01:56:55;;;;;;;20.70;10.80;;;2.90;51.10;;;;;;5021039;28;20062;-34
2023/12/02 01:59:22;;;;;;;18.42;9.80;;;2.90;51.20;;;;;;5026732;28;20056;-36
2023/12/02 02:01:50;;;;;;;21.02;10.60;;;2.90;51.10;;;;;;5019987;28;20053;-35
2023/12/02 02:04:19;;;;;;;20.70;10.68;;;2.90;51.00;;;;;;5023536;28;20045;-34
2023/12/02 02:06:46;;;;;;;18.80;10.23;;;2.90;51.00;;;;;;5021219;28;20053;-34
2023/12/02 02:09:13;;;;;;;17.80;9.95;;;3.00;51.10;;;;;;5020145;28;20505;-35
2023/12/02 02:11:41;;;;;;;18.73;9.88;;;3.00;51.10;;;;;;5024297;28;20049;-35
2023/12/02 02:14:08;;;;;;;18.25;9.77;;;3.00;51.10;;;;;;5021577;28;20060;-34
2023/12/02 02:16:35;;;;;;;20.42;9.90;;;3.00;51.10;;;;;;5016201;28;20524;-34
2023/12/02 02:19:02;;;;;;;20.20;10.45;;;3.00;51.10;;;;;;5024553;28;20060;-34
2023/12/02 02:21:31;;;;;;;19.17;10.48;;;3.00;51.00;;;;;;5023291;28;20053;-35
2023/12/02 02:23:58;;;;;;;17.67;9.75;;;3.00;50.90;;;;;;5022337;28;20053;-35
2023/12/02 02:26:25;;;;;;;17.73;9.43;;;3.10;50.90;;;;;;5024604;28;20057;-37
2023/12/02 02:28:52;;;;;;;18.98;10.65;;;3.10;51.00;;;;;;5019709;28;20049;-36
2023/12/02 02:31:20;;;;;;;20.65;11.25;;;3.00;50.60;;;;;;5014353;28;20053;-38
2023/12/02 02:33:47;;;;;;;21.90;11.85;;;3.00;50.50;;;;;;5020865;28;20053;-34
2023/12/02 02:36:14;;;;;;;19.35;10.15;;;3.00;50.70;;;;;;5015177;28;20049;-35
2023/12/02 02:38:43;;;;;;;20.85;11.10;;;3.00;50.80;;;;;;5022518;28;20050;-36
2023/12/02 02:41:10;;;;;;;20.30;11.30;;;3.00;50.80;;;;;;5022867;28;20049;-38
2023/12/02 02:43:37;;;;;;;22.60;11.60;;;3.00;50.60;;;;;;5021070;28;20065;-36
2023/12/02 02:46:07;;;;;;;22.60;11.40;;;3.00;50.20;;;;;;5020688;28;20405;-35
2023/12/02 02:48:34;;;;;;;18.15;10.02;;;3.00;50.20;;;;;;5018898;28;20508;-34
2023/12/02 02:51:02;;;;;;;22.15;11.07;;;3.00;50.40;;;;;;5024519;28;20058;-34
2023/12/02 02:53:30;;;;;;;26.95;12.60;;;2.90;50.60;;;;;;5024283;28;20057;-44
2023/12/02 02:55:59;;;;;;;21.95;11.40;;;2.90;50.30;;;;;;5020389;28;20418;-43
2023/12/02 02:58:30;;;;;;;20.98;12.02;;;2.90;50.20;;;;;;5016143;28;20062;-43
2023/12/02 03:00:57;;;;;;;21.08;11.43;;;2.80;50.10;;;;;;5023375;28;20057;-44
2023/12/02 03:03:24;;;;;;;21.60;11.18;;;2.80;50.10;;;;;;5025523;28;20052;-46
2023/12/02 03:05:51;;;;;;;19.92;10.93;;;2.80;50.30;;;;;;5023673;28;20050;-44
2023/12/02 03:08:18;;;;;;;22.48;11.75;;;2.80;50.40;;;;;;5028178;28;20048;-41
2023/12/02 03:10:49;;;;;;;19.33;10.85;;;2.70;50.30;;;;;;5041457;28;20053;-43
2023/12/02 03:13:17;;;;;;;24.92;11.75;;;2.60;50.00;;;;;;5045493;28;20052;-43
2023/12/02 03:15:45;;;;;;;21.42;11.73;;;2.50;50.00;;;;;;5036139;28;20060;-42
2023/12/02 03:18:12;;;;;;;21.58;11.60;;;2.40;50.10;;;;;;5043003;28;20049;-42
2023/12/02 03:20:39;;;;;;;22.38;11.35;;;2.40;50.30;;;;;;5052723;28;20053;-42
2023/12/02 03:23:06;;;;;;;20.90;10.95;;;2.30;50.20;;;;;;5044200;28;20528;-42
2023/12/02 03:25:34;;;;;;;19.95;11.07;;;2.30;50.50;;;;;;5043221;28;20063;-41
2023/12/02 03:28:01;;;;;;;21.50;11.15;;;2.20;50.40;;;;;;5042274;28;20509;-46
2023/12/02 03:30:29;;;;;;;18.17;10.40;;;2.20;50.60;;;;;;5039856;28;20062;-44
2023/12/02 03:32:57;;;;;;;17.48;9.77;;;2.20;50.80;;;;;;5041964;28;20056;-44
2023/12/02 03:35:24;;;;;;;20.95;11.02;;;2.20;51.10;;;;;;5043145;28;20512;-40
2023/12/02 03:37:51;;;;;;;22.20;12.23;;;2.20;51.20;;;;;;5038445;28;20055;-43
2023/12/02 03:40:18;;;;;;;21.25;11.18;;;2.20;51.20;;;;;;5044340;28;20076;-40
2023/12/02 03:42:46;;;;;;;19.73;9.82;;;2.30;51.30;;;;;;5036651;28;20056;-45
2023/12/02 03:45:13;;;;;;;19.20;10.43;;;2.30;51.50;;;;;;5040333;28;20044;-42
2023/12/02 03:47:41;;;;;;;19.52;9.73;;;2.30;51.60;;;;;;5043242;28;20517;-42
2023/12/02 03:50:10;;;;;;;20.67;11.15;;;2.40;51.60;;;;;;5039004;28;21213;-43
2023/12/02 03:52:37;;;;;;;21.02;10.70;;;2.40;51.60;;;;;;5043662;28;20056;-44
2023/12/02 03:55:05;;;;;;;21.17;11.30;;;2.40;51.70;;;;;;5039390;28;20048;-43
2023/12/02 03:57:32;;;;;;;20.95;11.77;;;2.40;51.70;;;;;;5041985;28;20497;-44
2023/12/02 04:00:00;;;;;;;18.88;10.48;;;2.50;51.70;;;;;;5042452;28;20045;-41
2023/12/02 04:02:27;;;;;;;23.60;12.63;;;2.50;51.60;;;;;;5045047;28;20045;-43
2023/12/02 04:04:56;;;;;;;20.40;11.48;;;2.50;51.70;;;;;;5041477;28;20053;-45
2023/12/02 04:07:23;;;;;;;21.58;11.65;;;2.50;52.10;;;;;;5042539;28;20068;-46
2023/12/02 04:09:51;;;;;;;20.35;11.52;;;2.60;51.70;;;;;;5042545;28;20056;-42
2023/12/02 04:12:18;;;;;;;22.67;12.50;;;2.60;51.60;;;;;;5043628;28;20528;-43
2023/12/02 04:14:45;;;;;;;21.75;11.38;;;2.60;51.60;;;;;;5044155;28;20059;-43
2023/12/02 04:17:13;;;;;;;20.38;12.32;;;2.60;51.60;;;;;;5041228;28;20053;-44
2023/12/02 04:19:40;;;;;;;18.80;10.80;;;2.60;51.50;;;;;;5038250;28;20425;-40
2023/12/02 04:22:09;;;;;;;18.95;11.25;;;2.60;51.50;;;;;;5042204;28;20128;-44
2023/12/02 04:24:36;;;;;;;25.50;13.52;;;2.60;51.60;;;;;;5048439;28;20059;-42
2023/12/02 04:27:03;;;;;;;25.27;13.18;;;2.60;51.20;;;;;;5040512;28;20404;-43
2023/12/02 04:29:31;;;;;;;25.27;12.80;;;2.60;51.20;;;;;;5043779;28;20417;-44
2023/12/02 04:31:58;;;;;;;21.30;12.07;;;2.60;51.00;;;;;;5038698;28;20046;-44
2023/12/02 04:34:26;;;;;;;22.35;11.88;;;2.50;50.60;;;;;;5036549;28;20057;-43
2023/12/02 04:36:53;;;;;;;22.52;12.30;;;2.50;50.70;;;;;;5041180;28;20064;-43
2023/12/02 04:39:21;;;;;;;21.58;11.00;;;2.40;50.70;;;;;;5041794;28;20056;-45
2023/12/02 04:41:49;;;;;;;20.23;11.38;;;2.40;50.90;;;;;;5045586;28;20512;-47
2023/12/02 04:44:16;;;;;;;21.42;12.02;;;2.40;51.10;;;;;;5036270;28;20481;-43
2023/12/02 04:46:44;;;;;;;21.83;10.75;;;2.40;51.10;;;;;;5043014;28;20420;-44
2023/12/02 04:49:13;;;;;;;20.42;10.90;;;2.40;51.10;;;;;;5041032;28;20049;-42
2023/12/02 04:51:40;;;;;;;17.90;10.38;;;2.40;51.00;;;;;;5044801;28;20049;-39
2023/12/02 04:54:07;;;;;;;18.13;10.60;;;2.40;51.50;;;;;;5049245;28;20060;-46
2023/12/02 04:56:37;;;;;;;18.98;10.45;;;2.40;50.80;;;;;;5044098;28;20052;-42
2023/12/02 04:59:04;;;;;;;18.27;10.30;;;2.30;50.90;;;;;;5047211;28;20412;-39
2023/12/02 05:01:31;;;;;;;16.92;9.68;;;2.30;50.90;;;;;;5045564;28;20052;-42
2023/12/02 05:03:59;;;;;;;16.38;8.75;;;2.30;51.00;;;;;;5018519;28;20049;-44
2023/12/02 05:06:26;;;;;;;15.38;9.05;;;2.40;51.30;;;;;;4997856;28;75426;-43
2023/12/02 05:08:53;;;;;;;15.98;8.43;;;2.40;51.90;;;;;;4985231;28;20045;-45
2023/12/02 05:11:22;;;;;;;14.15;8.13;;;2.40;51.50;;;;;;5005553;28;20049;-47
2023/12/02 05:13:51;;;;;;;15.55;7.78;;;2.40;51.70;;;;;;5003244;28;20057;-43
2023/12/02 05:16:18;;;;;;;12.80;8.13;;;2.40;51.60;;;;;;5000676;28;20517;-43
2023/12/02 05:18:45;;;;;;;17.13;9.20;;;2.50;51.50;;;;;;5002900;28;20072;-43
2023/12/02 05:21:13;;;;;;;14.55;7.82;;;2.50;51.20;;;;;;5008170;28;20046;-42
2023/12/02 05:23:41;;;;;;;14.90;7.88;;;2.40;51.00;;;;;;5005639;28;20049;-40
2023/12/02 05:26:09;;;;;;;14.90;8.27;;;2.40;51.00;;;;;;5006293;28;20525;-43
2023/12/02 05:28:36;;;;;;;13.98;7.85;;;2.40;50.90;;;;;;5005234;28;20053;-44
2023/12/02 05:31:06;;;;;;;13.88;7.75;;;2.40;50.80;;;;;;4999401;28;20045;-44
2023/12/02 05:33:33;;;;;;;14.90;8.23;;;2.40;50.70;;;;;;4998985;28;20058;-43
2023/12/02 05:36:00;;;;;;;15.98;8.70;;;2.30;50.80;;;;;;5008351;28;20057;-41
2023/12/02 05:38:28;;;;;;;16.77;9.27;;;2.30;50.70;;;;;;5006471;28;20054;-44
2023/12/02 05:40:55;;;;;;;13.43;7.75;;;2.30;50.90;;;;;;5002534;28;20058;-45
2023/12/02 05:43:22;;;;;;;15.15;8.73;;;2.30;51.20;;;;;;4999338;28;20513;-40
2023/12/02 05:45:49;;;;;;;14.27;8.80;;;2.40;51.40;;;;;;5001295;28;20050;-42
2023/12/02 05:48:18;;;;;;;15.38;8.93;;;2.40;51.40;;;;;;5000175;28;20056;-44
2023/12/02 05:50:45;;;;;;;15.23;9.27;;;2.40;51.50;;;;;;5002351;28;20383;-40
2023/12/02 05:53:12;;;;;;;16.02;9.02;;;2.40;51.50;;;;;;4999771;28;20073;-48
2023/12/02 05:55:40;;;;;;;16.42;9.20;;;2.40;51.40;;;;;;4998487;28;20050;-45
2023/12/02 05:58:07;;;;;;;17.88;9.75;;;2.50;51.40;;;;;;4999059;28;20049;-43
2023/12/02 06:00:35;;;;;;;15.63;8.77;;;2.50;51.20;;;;;;4996473;28;20050;-43
2023/12/02 06:03:03;;;;;;;15.05;8.68;;;2.50;51.10;;;;;;5002005;28;20510;-43
2023/12/02 06:05:31;;;;;;;14.02;9.40;;;2.50;51.20;;;;;;5003465;28;21154;-44
2023/12/02 06:07:58;;;;;;;17.77;9.43;;;2.50;51.30;;;;;;4993874;28;20054;-42
2023/12/02 06:10:26;;;;;;;15.75;8.80;;;2.50;51.50;;;;;;5007391;28;20061;-42
2023/12/02 06:12:53;;;;;;;16.35;9.50;;;2.50;51.70;;;;;;5006825;28;20062;-44
2023/12/02 06:15:20;;;;;;;18.95;9.98;;;2.60;52.00;;;;;;5007408;28;20046;-44
2023/12/02 06:17:48;;;;;;;17.83;9.55;;;2.60;51.90;;;;;;5002494;28;20054;-46
2023/12/02 06:20:15;;;;;;;13.52;8.68;;;2.70;52.00;;;;;;5005069;28;20046;-45
2023/12/02 06:22:43;;;;;;;18.38;10.05;;;2.70;52.20;;;;;;5000489;28;20426;-44
2023/12/02 06:25:11;;;;;;;18.17;9.65;;;2.70;52.20;;;;;;4994627;28;20053;-41
2023/12/02 06:27:38;;;;;;;17.00;10.05;;;2.70;52.30;;;;;;5003265;28;20089;-44
2023/12/02 06:30:06;;;;;;;18.00;9.18;;;2.80;52.10;;;;;;5003543;28;20050;-40
2023/12/02 06:32:34;;;;;;;17.73;10.50;;;2.80;51.90;;;;;;5002250;28;20410;-45
2023/12/02 06:35:01;;;;;;;14.68;9.18;;;2.80;51.60;;;;;;5002747;28;20054;-44
2023/12/02 06:37:28;;;;;;;18.63;10.23;;;2.80;51.50;;;;;;4994986;28;20417;-43
2023/12/02 06:39:57;;;;;;;14.95;9.43;;;2.90;51.40;;;;;;4999703;28;20501;-41
2023/12/02 06:42:24;;;;;;;16.45;9.48;;;2.90;51.30;;;;;;5007094;28;20057;-44
2023/12/02 06:44:51;;;;;;;16.35;9.73;;;2.90;51.30;;;;;;4997513;28;20065;-39
2023/12/02 06:47:18;;;;;;;18.77;11.20;;;2.90;51.30;;;;;;4997202;28;20051;-42
2023/12/02 06:49:46;;;;;;;18.42;10.77;;;2.90;51.40;;;;;;5002126;28;20050;-40
2023/12/02 06:52:13;;;;;;;17.25;9.85;;;2.90;51.40;;;;;;4999321;28;20057;-44
2023/12/02 06:54:41;;;;;;;17.25;10.05;;;2.90;51.30;;;;;;4999014;28;20054;-40
2023/12/02 06:57:10;;;;;;;17.70;10.00;;;2.90;51.30;;;;;;4998999;28;20050;-44
2023/12/02 06:59:37;;;;;;;18.88;10.18;;;2.90;51.30;;;;;;4995975;28;20057;-46
2023/12/02 07:02:04;;;;;;;17.90;10.02;;;2.90;51.40;;;;;;4994912;28;20503;-45
2023/12/02 07:04:32;;;;;;;17.67;10.13;;;2.90;51.40;;;;;;4996188;28;20060;-44
2023/12/02 07:06:59;;;;;;;18.65;9.85;;;3.00;51.60;;;;;;4993339;28;20410;-40
2023/12/02 07:09:26;;;;;;;16.92;9.80;;;3.00;51.70;;;;;;5000420;28;20072;-40
2023/12/02 07:11:53;;;;;;;20.33;10.65;;;3.00;51.70;;;;;;5001045;28;20435;-42
2023/12/02 07:14:22;;;;;;;19.40;11.07;;;3.00;51.60;;;;;;4998092;28;20061;-44
2023/12/02 07:16:49;;;;;;;19.83;10.48;;;3.00;51.50;;;;;;4997049;28;20057;-44
2023/12/02 07:19:17;;;;;;;19.80;10.90;;;3.00;51.60;;;;;;4995794;28;20064;-42
2023/12/02 07:21:44;;;;;;;20.17;10.95;;;3.00;51.50;;;;;;4997046;28;20054;-45
2023/12/02 07:24:11;;;;;;;18.17;11.07;;;3.00;51.60;;;;;;4996152;28;20050;-42
2023/12/02 07:26:38;;;;;;;17.92;10.68;;;3.00;51.70;;;;;;5000633;28;20065;-44
2023/12/02 07:29:05;;;;;;;19.73;11.10;;;3.00;51.70;;;;;;5005615;28;20045;-44
2023/12/02 07:31:34;;;;;;;17.80;10.73;;;3.00;51.70;;;;;;4998676;28;20469;-44
2023/12/02 07:34:02;;;;;;;21.02;11.55;;;3.00;51.50;;;;;;4996977;28;20490;-44
2023/12/02 07:36:30;;;;;;;20.73;11.32;;;3.00;51.60;;;;;;4996892;28;20057;-42
2023/12/02 07:38:57;;;;;;;19.92;11.02;;;3.00;51.60;;;;;;5001272;28;20061;-48
2023/12/02 07:41:25;;;;;;;17.48;10.75;;;3.00;51.70;;;;;;5001994;28;20049;-42
2023/12/02 07:43:52;;;;;;;21.20;12.38;;;3.00;51.80;;;;;;5000831;28;20050;-43
2023/12/02 07:46:19;;;;;;;20.48;12.02;;;3.00;51.80;;;;;;4997798;28;20056;-45
2023/12/02 07:48:48;;;;;;;20.40;11.48;;;3.00;51.90;;;;;;5002484;28;20418;-46
2023/12/02 07:51:16;;;;;;;20.67;11.68;;;3.00;52.10;;;;;;5003682;28;20052;-44
2023/12/02 07:53:43;;;;;;;19.83;11.20;;;3.00;52.10;;;;;;4997771;28;20054;-44
2023/12/02 07:56:11;;;;;;;20.58;12.35;;;3.10;52.20;;;;;;4997265;28;20069;-42
2023/12/02 07:58:39;;;;;;;18.92;11.70;;;3.10;52.30;;;;;;5003841;28;20045;-42
2023/12/02 08:01:06;;;;;;;20.63;11.65;;;3.10;52.20;;;;;;4993762;28;20081;-42
2023/12/02 08:03:34;;;;;;;20.88;12.02;;;3.10;52.30;;;;;;4998631;28;20570;-41
2023/12/02 08:06:03;;;;;;;21.33;12.25;;;3.10;52.30;;;;;;5001945;28;20061;-42
2023/12/02 08:08:30;;;;;;;20.15;11.75;;;3.10;52.40;;;;;;4993535;28;20065;-45
2023/12/02 08:10:58;;;;;;;19.92;11.82;;;3.10;52.50;;;;;;4991920;28;20050;-45
2023/12/02 08:13:25;;;;;;;21.90;11.80;;;3.10;52.50;;;;;;4999011;28;20065;-43
2023/12/02 08:15:52;;;;;;;23.30;12.57;;;3.20;52.50;;;;;;4995139;28;20077;-42
2023/12/02 08:18:21;;;;;;;21.40;12.25;;;3.20;52.40;;;;;;5003644;28;20053;-44
2023/12/02 08:20:48;;;;;;;21.40;12.38;;;3.20;52.50;;;;;;4998458;28;20065;-39
2023/12/02 08:23:16;;;;;;;19.15;11.20;;;3.20;52.50;;;;;;4997980;28;20525;-42
2023/12/02 08:25:44;;;;;;;19.33;11.68;;;3.10;51.90;;;;;;4989695;28;20053;-43
2023/12/02 08:28:11;;;;;;;19.17;11.35;;;3.00;51.70;;;;;;4996699;28;20147;-39
2023/12/02 08:30:38;;;;;;;22.33;12.73;;;3.00;51.80;;;;;;4994307;28;20049;-41
2023/12/02 08:33:06;;;;;;;20.55;11.80;;;2.90;51.50;;;;;;4998200;28;20068;-41
2023/12/02 08:35:33;;;;;;;20.75;12.48;;;2.90;51.60;;;;;;5001022;28;20065;-46
2023/12/02 08:38:00;;;;;;;19.90;11.35;;;2.80;51.50;;;;;;4998065;28;20065;-42
2023/12/02 08:40:29;;;;;;;18.92;10.95;;;2.80;51.60;;;;;;4998325;28;20060;-43
2023/12/02 08:42:56;;;;;;;22.58;12.45;;;2.80;51.60;;;;;;4999198;28;20513;-43
2023/12/02 08:45:23;;;;;;;19.20;11.50;;;2.80;51.60;;;;;;4993718;28;20465;-42
2023/12/02 08:47:50;;;;;;;19.85;11.60;;;2.80;51.60;;;;;;4993142;28;20415;-41
2023/12/02 08:50:18;;;;;;;23.17;12.32;;;2.80;51.90;;;;;;4997585;28;20061;-41
2023/12/02 08:52:45;;;;;;;20.70;12.23;;;2.80;51.90;;;;;;4995068;28;20077;-43
2023/12/02 08:55:12;;;;;;;19.13;11.43;;;2.80;52.00;;;;;;4989369;28;20054;-34
2023/12/02 08:57:41;;;;;;;18.85;11.55;;;2.90;52.10;;;;;;4996780;28;20053;-35
2023/12/02 09:00:09;;;;;;;18.60;11.15;;;2.90;52.30;;;;;;5000476;28;20058;-34
2023/12/02 09:02:37;;;;;;;22.30;12.90;;;2.90;52.20;;;;;;4997750;28;20050;-34
2023/12/02 09:05:05;;;;;;;22.77;12.55;;;2.90;51.90;;;;;;4995153;28;20084;-34
2023/12/02 09:07:32;;;;;;;22.77;11.98;;;2.90;51.60;;;;;;4998093;28;20053;-34
2023/12/02 09:09:59;;;;;;;20.92;12.43;;;3.00;51.70;;;;;;4999112;28;20062;-34
2023/12/02 09:12:26;;;;;;;22.85;12.27;;;3.00;51.90;;;;;;5000226;28;20064;-34
2023/12/02 09:15:07;;;;;;;22.35;12.07;;;3.00;51.90;;;;;;4999686;28;20487;-33
2023/12/02 09:18:16;;;;;;;23.63;12.90;;;3.00;51.90;;;;;;4998948;28;20061;-35
2023/12/02 09:20:45;;;;;;;20.75;12.30;;;3.00;51.40;;;;;;4984617;28;20395;-35
2023/12/02 09:23:14;;;;;;;22.50;12.57;;;3.10;51.60;;;;;;5011910;28;20045;-34
2023/12/02 09:25:42;;;;;;;23.70;12.85;;;3.10;51.80;;;;;;4995662;28;20058;-35
2023/12/02 09:28:20;;;;;;;22.15;13.27;;;3.10;51.80;;;;;;5001644;28;20703;-37
2023/12/02 09:30:58;;;;;;;23.65;13.13;;;3.10;51.50;;;;;;5000448;28;20053;-35
2023/12/02 09:33:26;;;;;;;23.40;13.43;;;3.10;51.50;;;;;;5003002;28;20521;-35
2023/12/02 09:35:57;;;;;;;22.25;14.02;;;3.20;51.60;;;;;;5000959;28;20054;-34
2023/12/02 09:38:25;;;;;;;24.10;13.52;;;3.20;51.40;;;;;;5003075;28;20054;-36
2023/12/02 09:41:09;;;;;;;25.25;14.50;;;3.20;51.40;;;;;;5003859;28;20446;-34
2023/12/02 09:43:43;;;;;;;25.92;13.70;;;3.20;51.50;;;;;;5005712;28;20489;-34
2023/12/02 09:46:32;;;;;;;24.55;14.07;;;3.20;51.60;;;;;;5002943;28;20514;-34
2023/12/02 09:49:21;;;;;;;24.25;13.77;;;3.20;51.50;;;;;;4999146;28;20050;-35
2023/12/02 09:52:14;;;;;;;24.33;13.85;;;3.20;51.40;;;;;;5000602;28;20394;-34
2023/12/02 09:54:50;;;;;;;30.55;15.43;;;3.20;51.50;;;;;;5000872;28;20054;-34
2023/12/02 09:57:32;;;;;;;28.80;15.60;;;3.20;51.20;;;;;;5003287;28;20050;-34
2023/12/02 10:00:09;;;;;;;28.02;15.23;;;3.20;51.00;;;;;;4996376;28;20061;-34
2023/12/02 10:02:56;;;;;;;28.67;15.32;;;3.10;51.10;;;;;;5002833;28;20046;-34
2023/12/02 10:05:23;;;;;;;28.13;16.02;;;3.10;51.20;;;;;;5003065;28;20399;-43
2023/12/02 10:08:03;;;;;;;31.02;16.35;;;3.00;51.10;;;;;;4995312;28;20057;-43
2023/12/02 10:10:40;;;;;;;29.83;16.67;;;3.00;51.20;;;;;;4999300;28;20058;-41
2023/12/02 10:13:18;;;;;;;30.13;16.00;;;3.00;51.40;;;;;;4997783;28;20060;-46
2023/12/02 10:15:48;;;;;;;29.10;16.02;;;2.90;51.00;;;;;;4997577;28;20418;-44
2023/12/02 10:18:18;;;;;;;31.45;16.38;;;2.90;51.10;;;;;;5003954;28;20050;-42
2023/12/02 10:20:49;;;;;;;31.65;17.00;;;2.90;51.10;;;;;;5000261;28;20061;-41
2023/12/02 10:23:25;;;;;;;27.08;15.13;;;2.80;51.00;;;;;;5004012;28;20046;-43
2023/12/02 10:26:02;;;;;;;28.35;15.15;;;2.80;51.30;;;;;;4996316;28;20054;-40
2023/12/02 10:28:39;;;;;;;28.33;14.45;;;2.80;51.20;;;;;;5000899;28;20054;-43
2023/12/02 10:31:07;;;;;;;25.67;15.00;;;2.70;50.80;;;;;;5001732;28;20065;-43
2023/12/02 10:33:45;;;;;;;28.83;14.52;;;2.80;50.90;;;;;;5003075;28;20802;-45
2023/12/02 10:36:13;;;;;;;28.23;14.30;;;2.80;50.90;;;;;;4996186;28;20046;-43
2023/12/02 10:38:56;;;;;;;32.15;15.70;;;2.80;51.30;;;;;;4997467;28;20077;-40
2023/12/02 10:41:29;;;;;;;25.88;14.07;;;2.80;51.30;;;;;;4995513;28;20064;-46
2023/12/02 10:44:01;;;;;;;27.30;14.63;;;2.80;51.10;;;;;;4993871;28;20403;-44
2023/12/02 10:46:29;;;;;;;23.95;13.27;;;2.80;51.20;;;;;;4993899;28;20478;-47
2023/12/02 10:49:00;;;;;;;26.25;14.40;;;2.80;51.00;;;;;;4998673;28;20061;-43
2023/12/02 10:51:28;;;;;;;25.55;13.93;;;2.70;50.70;;;;;;5000661;28;20058;-44
2023/12/02 10:53:58;;;;;;;28.27;14.95;;;2.70;50.60;;;;;;4999280;28;20046;-47
2023/12/02 10:56:27;;;;;;;27.92;14.73;;;2.70;50.70;;;;;;5001268;28;20050;-43
2023/12/02 10:58:56;;;;;;;26.10;13.98;;;2.60;50.50;;;;;;5000446;28;20062;-43
2023/12/02 11:01:32;;;;;;;27.88;15.13;;;2.60;50.60;;;;;;5001199;28;20054;-45
2023/12/02 11:04:07;;;;;;;26.20;14.90;;;2.60;50.90;;;;;;5006155;28;20061;-45
2023/12/02 11:06:38;;;;;;;26.38;14.65;;;2.60;51.10;;;;;;4998274;28;20057;-42
2023/12/02 11:09:12;;;;;;;27.85;15.15;;;2.70;51.10;;;;;;4999851;28;20050;-43
2023/12/02 11:11:47;;;;;;;;;;;2.60;51.10;;;;;;5001384;28;20057;-42
2023/12/02 11:14:17;;;;;;;26.60;14.23;;;2.70;51.30;;;;;;4998590;28;20305;-40
2023/12/02 11:16:59;;;;;;;25.75;13.98;;;2.80;51.20;;;;;;4998603;28;20418;-43
2023/12/02 11:19:39;;;;;;;29.95;15.07;;;2.70;50.70;;;;;;5000521;28;20065;-43
2023/12/02 11:22:26;;;;;;;26.27;13.95;;;2.70;50.90;;;;;;4999882;28;20118;-42
2023/12/02 11:25:07;;;;;;;26.08;14.27;;;2.70;51.10;;;;;;4999486;28;20058;-44
2023/12/02 11:27:44;;;;;;;24.40;14.07;;;2.80;51.20;;;;;;4999998;28;20450;-46
2023/12/02 11:30:25;;;;;;;28.48;14.95;;;2.80;51.10;;;;;;5003471;28;20421;-43
2023/12/02 11:33:02;;;;;;;27.80;15.05;;;2.80;51.10;;;;;;4996236;28;20479;-43
2023/12/02 11:35:40;;;;;;;27.52;14.68;;;2.80;51.30;;;;;;4998168;28;20062;-43
2023/12/02 11:38:17;;;;;;;23.90;13.90;;;2.80;51.40;;;;;;4999964;28;20504;-40
2023/12/02 11:40:52;;;;;;;23.50;13.38;;;2.90;51.30;;;;;;5001224;28;20053;-45
2023/12/02 11:43:35;;;;;;;23.75;13.13;;;2.90;51.20;;;;;;4999792;28;20057;-45
2023/12/02 11:46:05;;;;;;;23.45;13.27;;;2.80;50.90;;;;;;5001613;28;20057;-41
2023/12/02 11:48:42;;;;;;;22.60;12.63;;;2.70;50.50;;;;;;5000287;28;20054;-44
2023/12/02 11:51:23;;;;;;;25.55;14.80;;;2.80;50.90;;;;;;4996242;28;20057;-43
2023/12/02 11:54:09;;;;;;;23.88;13.52;;;2.70;51.40;;;;;;4997841;28;20050;-42
2023/12/02 11:56:39;;;;;;;24.65;13.82;;;2.70;51.60;;;;;;4994935;28;20065;-40
2023/12/02 11:59:16;;;;;;;24.83;13.68;;;2.70;51.50;;;;;;4998430;28;20054;-43
2023/12/02 12:02:02;;;;;;;32.92;14.68;;;2.60;51.40;;;;;;5000448;28;20054;-45
2023/12/02 12:05:01;;;;;;;22.38;12.85;;;2.70;51.50;;;;;;5002427;28;20050;-45
2023/12/02 12:07:41;;;;;;;24.50;13.05;;;2.70;51.40;;;;;;4995055;28;20058;-44
2023/12/02 12:10:15;;;;;;;22.48;13.00;;;2.50;50.90;;;;;;5004727;28;20064;-42
2023/12/02 12:12:46;;;;;;;28.42;11.85;;;2.50;51.30;;;;;;5007256;28;20057;-39
2023/12/02 12:15:14;;;;;;;22.02;12.52;;;2.60;51.50;;;;;;5002456;28;20046;-42
2023/12/02 12:17:42;;;;;;;24.13;11.90;;;2.60;51.50;;;;;;5000184;28;20053;-44
2023/12/02 12:20:20;;;;;;;26.33;13.15;;;2.60;51.50;;;;;;5006221;28;20054;-45
2023/12/02 12:22:50;;;;;;;20.65;11.68;;;2.60;51.20;;;;;;5006005;28;20057;-43
2023/12/02 12:25:17;;;;;;;20.08;11.85;;;2.70;51.40;;;;;;5003750;28;20050;-36
2023/12/02 12:27:45;;;;;;;22.08;12.15;;;2.70;51.40;;;;;;4999293;28;20054;-35
2023/12/02 12:30:12;;;;;;;23.13;12.02;;;2.80;51.50;;;;;;5001292;28;20061;-37
2023/12/02 12:32:40;;;;;;;24.70;13.65;;;2.70;51.40;;;;;;5003700;28;20064;-35
2023/12/02 12:35:11;;;;;;;24.58;12.95;;;2.80;51.50;;;;;;5000826;28;20068;-34
2023/12/02 12:37:42;;;;;;;25.50;13.20;;;2.90;51.50;;;;;;4999053;28;20065;-35
2023/12/02 12:40:12;;;;;;;24.95;13.98;;;2.90;51.40;;;;;;5005966;28;20518;-34
2023/12/02 12:42:47;;;;;;;24.92;13.48;;;3.00;51.50;;;;;;4996609;28;20065;-35
2023/12/02 12:45:14;;;;;;;24.60;13.98;;;3.10;51.50;;;;;;5001813;28;20050;-36
2023/12/02 12:47:43;;;;;;;23.83;13.55;;;3.10;51.40;;;;;;4998326;28;20058;-35
2023/12/02 12:50:12;;;;;;;25.58;14.13;;;3.20;51.50;;;;;;5000694;28;20057;-35
2023/12/02 12:52:48;;;;;;;27.75;14.60;;;3.20;51.30;;;;;;5005893;28;20446;-34